sensor_id;sensor_type;location;lat;lon;timestamp;P1;durP1;ratioP1;P2;durP2;ratioP2
62929;SDS011;49036;42.782;23.108;2023-02-22T00:01:27;5.70;;;2.90;;
62929;SDS011;49036;42.782;23.108;2023-02-22T00:03:59;3.88;;;2.40;;
62929;SDS011;49036;42.782;23.108;2023-02-22T00:06:30;7.05;;;2.92;;
62929;SDS011;49036;42.782;23.108;2023-02-22T00:08:56;4.32;;;2.33;;
62929;SDS011;49036;42.782;23.108;2023-02-22T00:11:22;6.80;;;2.78;;
62929;SDS011;49036;42.782;23.108;2023-02-22T00:13:49;6.05;;;2.55;;
62929;SDS011;49036;42.782;23.108;2023-02-22T00:16:21;6.22;;;3.05;;
62929;SDS011;49036;42.782;23.108;2023-02-22T00:18:47;7.18;;;2.50;;
62929;SDS011;49036;42.782;23.108;2023-02-22T00:23:41;5.32;;;2.13;;
62929;SDS011;49036;42.782;23.108;2023-02-22T00:26:15;4.75;;;2.42;;
62929;SDS011;49036;42.782;23.108;2023-02-22T00:28:46;10.07;;;2.35;;
62929;SDS011;49036;42.782;23.108;2023-02-22T00:31:13;3.33;;;1.90;;
62929;SDS011;49036;42.782;23.108;2023-02-22T00:33:39;5.25;;;2.33;;
62929;SDS011;49036;42.782;23.108;2023-02-22T00:36:05;7.32;;;1.90;;
62929;SDS011;49036;42.782;23.108;2023-02-22T00:50:29;4.38;;;2.35;;
62929;SDS011;49036;42.782;23.108;2023-02-22T00:52:57;3.10;;;1.80;;
62929;SDS011;49036;42.782;23.108;2023-02-22T00:55:28;4.32;;;1.70;;
62929;SDS011;49036;42.782;23.108;2023-02-22T00:57:55;4.72;;;2.38;;
62929;SDS011;49036;42.782;23.108;2023-02-22T01:02:53;5.07;;;1.75;;
62929;SDS011;49036;42.782;23.108;2023-02-22T01:05:22;4.35;;;2.33;;
62929;SDS011;49036;42.782;23.108;2023-02-22T01:07:49;4.75;;;2.10;;
62929;SDS011;49036;42.782;23.108;2023-02-22T01:10:16;5.95;;;1.98;;
62929;SDS011;49036;42.782;23.108;2023-02-22T01:12:43;3.33;;;2.65;;
62929;SDS011;49036;42.782;23.108;2023-02-22T01:15:10;2.65;;;2.03;;
62929;SDS011;49036;42.782;23.108;2023-02-22T01:17:36;4.57;;;2.28;;
62929;SDS011;49036;42.782;23.108;2023-02-22T01:20:04;1.83;;;1.73;;
62929;SDS011;49036;42.782;23.108;2023-02-22T01:22:38;3.30;;;1.90;;
62929;SDS011;49036;42.782;23.108;2023-02-22T01:25:04;3.33;;;2.28;;
62929;SDS011;49036;42.782;23.108;2023-02-22T01:27:32;5.10;;;1.65;;
62929;SDS011;49036;42.782;23.108;2023-02-22T01:30:01;3.45;;;2.08;;
62929;SDS011;49036;42.782;23.108;2023-02-22T01:32:33;2.22;;;1.52;;
62929;SDS011;49036;42.782;23.108;2023-02-22T01:35:00;3.28;;;1.60;;
62929;SDS011;49036;42.782;23.108;2023-02-22T01:37:29;1.80;;;1.50;;
62929;SDS011;49036;42.782;23.108;2023-02-22T01:39:56;3.10;;;1.88;;
62929;SDS011;49036;42.782;23.108;2023-02-22T01:47:52;2.17;;;1.40;;
62929;SDS011;49036;42.782;23.108;2023-02-22T01:50:20;2.90;;;1.80;;
62929;SDS011;49036;42.782;23.108;2023-02-22T01:52:46;3.45;;;2.15;;
62929;SDS011;49036;42.782;23.108;2023-02-22T01:55:12;3.28;;;2.05;;
62929;SDS011;49036;42.782;23.108;2023-02-22T01:57:37;3.28;;;2.15;;
62929;SDS011;49036;42.782;23.108;2023-02-22T02:00:08;4.97;;;2.08;;
62929;SDS011;49036;42.782;23.108;2023-02-22T02:02:40;2.75;;;1.85;;
62929;SDS011;49036;42.782;23.108;2023-02-22T02:05:09;8.02;;;2.38;;
62929;SDS011;49036;42.782;23.108;2023-02-22T02:07:36;4.30;;;2.08;;
62929;SDS011;49036;42.782;23.108;2023-02-22T02:10:04;2.35;;;2.15;;
62929;SDS011;49036;42.782;23.108;2023-02-22T02:12:39;4.07;;;2.20;;
62929;SDS011;49036;42.782;23.108;2023-02-22T02:15:27;2.75;;;2.00;;
62929;SDS011;49036;42.782;23.108;2023-02-22T02:17:55;7.32;;;2.33;;
62929;SDS011;49036;42.782;23.108;2023-02-22T02:29:44;2.72;;;1.90;;
62929;SDS011;49036;42.782;23.108;2023-02-22T02:32:32;5.13;;;2.90;;
62929;SDS011;49036;42.782;23.108;2023-02-22T02:40:19;6.10;;;2.05;;
62929;SDS011;49036;42.782;23.108;2023-02-22T02:42:50;7.03;;;2.35;;
62929;SDS011;49036;42.782;23.108;2023-02-22T02:45:28;4.15;;;2.00;;
62929;SDS011;49036;42.782;23.108;2023-02-22T02:48:00;2.22;;;1.83;;
62929;SDS011;49036;42.782;23.108;2023-02-22T02:50:29;5.57;;;2.25;;
62929;SDS011;49036;42.782;23.108;2023-02-22T02:52:58;3.03;;;1.85;;
62929;SDS011;49036;42.782;23.108;2023-02-22T02:55:28;3.22;;;2.03;;
62929;SDS011;49036;42.782;23.108;2023-02-22T02:57:55;8.77;;;2.30;;
62929;SDS011;49036;42.782;23.108;2023-02-22T03:00:21;2.75;;;2.10;;
62929;SDS011;49036;42.782;23.108;2023-02-22T03:03:06;4.68;;;1.98;;
62929;SDS011;49036;42.782;23.108;2023-02-22T03:08:48;2.95;;;1.70;;
62929;SDS011;49036;42.782;23.108;2023-02-22T03:11:18;3.90;;;2.28;;
62929;SDS011;49036;42.782;23.108;2023-02-22T03:17:12;4.22;;;2.20;;
62929;SDS011;49036;42.782;23.108;2023-02-22T03:19:55;3.72;;;2.50;;
62929;SDS011;49036;42.782;23.108;2023-02-22T03:23:12;4.22;;;1.95;;
62929;SDS011;49036;42.782;23.108;2023-02-22T03:25:23;3.78;;;2.03;;
62929;SDS011;49036;42.782;23.108;2023-02-22T03:27:57;2.50;;;2.00;;
62929;SDS011;49036;42.782;23.108;2023-02-22T03:30:32;3.20;;;1.85;;
62929;SDS011;49036;42.782;23.108;2023-02-22T03:33:10;4.93;;;2.25;;
62929;SDS011;49036;42.782;23.108;2023-02-22T03:35:41;5.80;;;3.78;;
62929;SDS011;49036;42.782;23.108;2023-02-22T03:38:12;3.83;;;2.30;;
62929;SDS011;49036;42.782;23.108;2023-02-22T03:40:44;3.72;;;2.20;;
62929;SDS011;49036;42.782;23.108;2023-02-22T03:43:17;6.30;;;2.38;;
62929;SDS011;49036;42.782;23.108;2023-02-22T03:45:49;5.07;;;2.30;;
62929;SDS011;49036;42.782;23.108;2023-02-22T03:50:43;3.60;;;2.20;;
62929;SDS011;49036;42.782;23.108;2023-02-22T03:53:09;3.85;;;2.28;;
62929;SDS011;49036;42.782;23.108;2023-02-22T03:55:35;5.38;;;2.20;;
62929;SDS011;49036;42.782;23.108;2023-02-22T03:58:07;2.70;;;2.28;;
62929;SDS011;49036;42.782;23.108;2023-02-22T04:00:36;4.60;;;2.13;;
62929;SDS011;49036;42.782;23.108;2023-02-22T04:03:02;3.42;;;2.17;;
62929;SDS011;49036;42.782;23.108;2023-02-22T04:05:28;5.88;;;2.85;;
62929;SDS011;49036;42.782;23.108;2023-02-22T04:07:54;5.40;;;2.75;;
62929;SDS011;49036;42.782;23.108;2023-02-22T04:10:21;3.10;;;2.30;;
62929;SDS011;49036;42.782;23.108;2023-02-22T04:12:47;3.85;;;2.45;;
62929;SDS011;49036;42.782;23.108;2023-02-22T04:15:16;5.35;;;2.30;;
62929;SDS011;49036;42.782;23.108;2023-02-22T04:17:44;4.10;;;2.58;;
62929;SDS011;49036;42.782;23.108;2023-02-22T04:20:10;4.43;;;2.72;;
62929;SDS011;49036;42.782;23.108;2023-02-22T04:22:38;8.02;;;3.03;;
62929;SDS011;49036;42.782;23.108;2023-02-22T04:25:05;4.63;;;2.22;;
62929;SDS011;49036;42.782;23.108;2023-02-22T04:27:31;8.07;;;2.33;;
62929;SDS011;49036;42.782;23.108;2023-02-22T04:29:57;5.40;;;2.35;;
62929;SDS011;49036;42.782;23.108;2023-02-22T04:32:22;7.50;;;3.17;;
62929;SDS011;49036;42.782;23.108;2023-02-22T04:34:48;3.72;;;2.17;;
62929;SDS011;49036;42.782;23.108;2023-02-22T04:37:13;5.20;;;2.63;;
62929;SDS011;49036;42.782;23.108;2023-02-22T04:39:39;7.72;;;2.78;;
62929;SDS011;49036;42.782;23.108;2023-02-22T04:42:04;4.72;;;2.20;;
62929;SDS011;49036;42.782;23.108;2023-02-22T04:44:30;4.50;;;2.28;;
62929;SDS011;49036;42.782;23.108;2023-02-22T04:46:56;5.90;;;2.40;;
62929;SDS011;49036;42.782;23.108;2023-02-22T04:49:22;6.95;;;3.38;;
62929;SDS011;49036;42.782;23.108;2023-02-22T04:51:47;6.57;;;2.80;;
62929;SDS011;49036;42.782;23.108;2023-02-22T04:54:13;15.50;;;3.35;;
62929;SDS011;49036;42.782;23.108;2023-02-22T04:56:40;7.72;;;3.25;;
62929;SDS011;49036;42.782;23.108;2023-02-22T04:59:05;5.47;;;2.72;;
62929;SDS011;49036;42.782;23.108;2023-02-22T05:01:32;12.57;;;3.50;;
62929;SDS011;49036;42.782;23.108;2023-02-22T05:04:00;7.18;;;3.25;;
62929;SDS011;49036;42.782;23.108;2023-02-22T05:06:30;5.07;;;3.05;;
62929;SDS011;49036;42.782;23.108;2023-02-22T05:08:55;6.50;;;2.58;;
62929;SDS011;49036;42.782;23.108;2023-02-22T05:11:21;10.48;;;3.25;;
62929;SDS011;49036;42.782;23.108;2023-02-22T05:13:47;9.10;;;2.85;;
62929;SDS011;49036;42.782;23.108;2023-02-22T05:16:13;3.70;;;2.88;;
62929;SDS011;49036;42.782;23.108;2023-02-22T05:18:39;13.77;;;3.20;;
62929;SDS011;49036;42.782;23.108;2023-02-22T05:21:05;7.38;;;3.42;;
62929;SDS011;49036;42.782;23.108;2023-02-22T05:23:31;22.23;;;6.88;;
62929;SDS011;49036;42.782;23.108;2023-02-22T05:25:57;14.75;;;6.32;;
62929;SDS011;49036;42.782;23.108;2023-02-22T05:28:23;27.50;;;11.30;;
62929;SDS011;49036;42.782;23.108;2023-02-22T05:30:49;18.83;;;8.35;;
62929;SDS011;49036;42.782;23.108;2023-02-22T05:33:15;16.92;;;8.93;;
62929;SDS011;49036;42.782;23.108;2023-02-22T05:35:41;12.85;;;5.55;;
62929;SDS011;49036;42.782;23.108;2023-02-22T05:38:08;13.93;;;5.15;;
62929;SDS011;49036;42.782;23.108;2023-02-22T05:40:39;6.03;;;4.15;;
62929;SDS011;49036;42.782;23.108;2023-02-22T05:45:31;16.90;;;5.82;;
62929;SDS011;49036;42.782;23.108;2023-02-22T05:47:56;14.02;;;5.63;;
62929;SDS011;49036;42.782;23.108;2023-02-22T05:50:22;10.18;;;4.88;;
62929;SDS011;49036;42.782;23.108;2023-02-22T05:52:48;16.48;;;6.45;;
62929;SDS011;49036;42.782;23.108;2023-02-22T05:55:15;11.10;;;4.25;;
62929;SDS011;49036;42.782;23.108;2023-02-22T05:57:42;7.53;;;3.65;;
62929;SDS011;49036;42.782;23.108;2023-02-22T06:00:08;8.10;;;3.47;;
62929;SDS011;49036;42.782;23.108;2023-02-22T06:02:34;8.95;;;3.85;;
62929;SDS011;49036;42.782;23.108;2023-02-22T06:05:00;6.25;;;3.38;;
62929;SDS011;49036;42.782;23.108;2023-02-22T06:07:25;10.40;;;5.40;;
62929;SDS011;49036;42.782;23.108;2023-02-22T06:09:51;10.57;;;2.95;;
62929;SDS011;49036;42.782;23.108;2023-02-22T06:12:17;15.95;;;3.65;;
62929;SDS011;49036;42.782;23.108;2023-02-22T06:14:46;32.95;;;11.25;;
62929;SDS011;49036;42.782;23.108;2023-02-22T06:17:12;16.15;;;6.03;;
62929;SDS011;49036;42.782;23.108;2023-02-22T06:19:38;14.80;;;6.25;;
62929;SDS011;49036;42.782;23.108;2023-02-22T06:22:04;16.40;;;4.90;;
62929;SDS011;49036;42.782;23.108;2023-02-22T06:24:31;12.45;;;5.90;;
62929;SDS011;49036;42.782;23.108;2023-02-22T06:29:24;19.67;;;5.25;;
62929;SDS011;49036;42.782;23.108;2023-02-22T06:31:51;10.82;;;4.72;;
62929;SDS011;49036;42.782;23.108;2023-02-22T06:34:16;17.15;;;6.43;;
62929;SDS011;49036;42.782;23.108;2023-02-22T06:36:43;15.25;;;5.20;;
62929;SDS011;49036;42.782;23.108;2023-02-22T06:39:08;17.50;;;6.88;;
62929;SDS011;49036;42.782;23.108;2023-02-22T06:41:38;13.25;;;5.90;;
62929;SDS011;49036;42.782;23.108;2023-02-22T06:44:04;12.30;;;5.32;;
62929;SDS011;49036;42.782;23.108;2023-02-22T06:46:30;11.60;;;4.90;;
62929;SDS011;49036;42.782;23.108;2023-02-22T06:48:56;11.98;;;4.85;;
62929;SDS011;49036;42.782;23.108;2023-02-22T06:51:24;12.52;;;4.38;;
62929;SDS011;49036;42.782;23.108;2023-02-22T06:53:51;9.05;;;4.38;;
62929;SDS011;49036;42.782;23.108;2023-02-22T06:56:16;11.32;;;5.97;;
62929;SDS011;49036;42.782;23.108;2023-02-22T06:58:42;7.30;;;4.03;;
62929;SDS011;49036;42.782;23.108;2023-02-22T07:03:33;8.18;;;4.57;;
62929;SDS011;49036;42.782;23.108;2023-02-22T07:05:59;9.18;;;3.90;;
62929;SDS011;49036;42.782;23.108;2023-02-22T07:08:26;15.13;;;4.78;;
62929;SDS011;49036;42.782;23.108;2023-02-22T07:10:52;11.52;;;3.88;;
62929;SDS011;49036;42.782;23.108;2023-02-22T07:13:18;29.52;;;7.38;;
62929;SDS011;49036;42.782;23.108;2023-02-22T07:15:43;21.65;;;5.60;;
62929;SDS011;49036;42.782;23.108;2023-02-22T07:18:09;19.50;;;4.90;;
62929;SDS011;49036;42.782;23.108;2023-02-22T07:20:36;13.32;;;4.40;;
62929;SDS011;49036;42.782;23.108;2023-02-22T07:23:02;16.90;;;4.95;;
62929;SDS011;49036;42.782;23.108;2023-02-22T07:25:28;14.93;;;5.28;;
62929;SDS011;49036;42.782;23.108;2023-02-22T07:27:54;11.63;;;4.88;;
62929;SDS011;49036;42.782;23.108;2023-02-22T07:30:21;16.40;;;5.05;;
62929;SDS011;49036;42.782;23.108;2023-02-22T07:32:54;11.52;;;4.32;;
62929;SDS011;49036;42.782;23.108;2023-02-22T07:35:28;13.45;;;4.32;;
62929;SDS011;49036;42.782;23.108;2023-02-22T07:37:55;11.88;;;4.72;;
62929;SDS011;49036;42.782;23.108;2023-02-22T07:40:22;11.18;;;4.32;;
62929;SDS011;49036;42.782;23.108;2023-02-22T07:42:59;10.70;;;4.22;;
62929;SDS011;49036;42.782;23.108;2023-02-22T07:45:27;9.73;;;3.92;;
62929;SDS011;49036;42.782;23.108;2023-02-22T07:47:54;10.95;;;3.90;;
62929;SDS011;49036;42.782;23.108;2023-02-22T07:52:46;11.50;;;3.72;;
62929;SDS011;49036;42.782;23.108;2023-02-22T07:55:15;8.50;;;2.53;;
62929;SDS011;49036;42.782;23.108;2023-02-22T07:57:44;5.57;;;3.72;;
62929;SDS011;49036;42.782;23.108;2023-02-22T08:00:11;10.20;;;3.97;;
62929;SDS011;49036;42.782;23.108;2023-02-22T08:02:41;6.70;;;3.28;;
62929;SDS011;49036;42.782;23.108;2023-02-22T08:05:09;5.60;;;3.08;;
62929;SDS011;49036;42.782;23.108;2023-02-22T08:07:36;8.00;;;3.20;;
62929;SDS011;49036;42.782;23.108;2023-02-22T08:10:02;9.35;;;4.07;;
62929;SDS011;49036;42.782;23.108;2023-02-22T08:12:33;17.50;;;3.33;;
62929;SDS011;49036;42.782;23.108;2023-02-22T08:15:00;6.82;;;4.05;;
62929;SDS011;49036;42.782;23.108;2023-02-22T08:17:26;9.95;;;4.15;;
62929;SDS011;49036;42.782;23.108;2023-02-22T08:19:52;5.22;;;3.40;;
62929;SDS011;49036;42.782;23.108;2023-02-22T08:22:17;7.75;;;3.83;;
62929;SDS011;49036;42.782;23.108;2023-02-22T08:24:43;6.68;;;3.95;;
62929;SDS011;49036;42.782;23.108;2023-02-22T08:27:08;5.50;;;3.38;;
62929;SDS011;49036;42.782;23.108;2023-02-22T08:29:34;8.95;;;3.15;;
62929;SDS011;49036;42.782;23.108;2023-02-22T08:31:59;8.00;;;3.83;;
62929;SDS011;49036;42.782;23.108;2023-02-22T08:34:25;7.72;;;3.88;;
62929;SDS011;49036;42.782;23.108;2023-02-22T08:36:51;7.38;;;3.58;;
62929;SDS011;49036;42.782;23.108;2023-02-22T08:39:17;9.13;;;3.63;;
62929;SDS011;49036;42.782;23.108;2023-02-22T08:41:43;5.65;;;2.95;;
62929;SDS011;49036;42.782;23.108;2023-02-22T08:44:08;9.57;;;3.50;;
62929;SDS011;49036;42.782;23.108;2023-02-22T08:46:34;6.90;;;3.42;;
62929;SDS011;49036;42.782;23.108;2023-02-22T08:49:00;6.65;;;3.17;;
62929;SDS011;49036;42.782;23.108;2023-02-22T08:51:25;6.00;;;3.50;;
62929;SDS011;49036;42.782;23.108;2023-02-22T08:53:51;17.75;;;3.47;;
62929;SDS011;49036;42.782;23.108;2023-02-22T08:56:17;6.00;;;3.35;;
62929;SDS011;49036;42.782;23.108;2023-02-22T08:58:43;4.95;;;2.58;;
62929;SDS011;49036;42.782;23.108;2023-02-22T09:01:09;15.68;;;3.75;;
62929;SDS011;49036;42.782;23.108;2023-02-22T09:03:35;7.72;;;3.20;;
62929;SDS011;49036;42.782;23.108;2023-02-22T09:06:00;7.05;;;3.78;;
62929;SDS011;49036;42.782;23.108;2023-02-22T09:08:27;6.20;;;3.45;;
62929;SDS011;49036;42.782;23.108;2023-02-22T09:10:53;6.40;;;3.28;;
62929;SDS011;49036;42.782;23.108;2023-02-22T09:13:18;6.65;;;3.78;;
62929;SDS011;49036;42.782;23.108;2023-02-22T09:15:44;5.72;;;2.90;;
62929;SDS011;49036;42.782;23.108;2023-02-22T09:18:10;5.88;;;2.65;;
62929;SDS011;49036;42.782;23.108;2023-02-22T09:20:38;5.90;;;3.00;;
62929;SDS011;49036;42.782;23.108;2023-02-22T09:23:05;4.70;;;2.20;;
62929;SDS011;49036;42.782;23.108;2023-02-22T09:25:31;5.15;;;2.90;;
62929;SDS011;49036;42.782;23.108;2023-02-22T09:29:29;5.40;;;2.50;;
62929;SDS011;49036;42.782;23.108;2023-02-22T09:31:55;4.28;;;2.53;;
62929;SDS011;49036;42.782;23.108;2023-02-22T09:34:22;5.03;;;2.55;;
62929;SDS011;49036;42.782;23.108;2023-02-22T09:36:53;5.38;;;2.38;;
62929;SDS011;49036;42.782;23.108;2023-02-22T09:39:23;6.57;;;2.90;;
62929;SDS011;49036;42.782;23.108;2023-02-22T09:47:22;6.30;;;2.63;;
62929;SDS011;49036;42.782;23.108;2023-02-22T09:50:01;6.85;;;3.50;;
62929;SDS011;49036;42.782;23.108;2023-02-22T09:58:21;5.30;;;2.63;;
62929;SDS011;49036;42.782;23.108;2023-02-22T10:03:50;8.13;;;2.42;;
62929;SDS011;49036;42.782;23.108;2023-02-22T10:06:19;4.07;;;2.60;;
62929;SDS011;49036;42.782;23.108;2023-02-22T10:08:47;2.90;;;2.15;;
62929;SDS011;49036;42.782;23.108;2023-02-22T10:16:41;8.15;;;1.95;;
62929;SDS011;49036;42.782;23.108;2023-02-22T10:28:12;4.40;;;2.17;;
62929;SDS011;49036;42.782;23.108;2023-02-22T10:30:49;3.28;;;2.22;;
62929;SDS011;49036;42.782;23.108;2023-02-22T10:33:21;4.90;;;1.70;;
62929;SDS011;49036;42.782;23.108;2023-02-22T10:36:17;3.38;;;1.70;;
62929;SDS011;49036;42.782;23.108;2023-02-22T10:38:47;3.15;;;2.08;;
62929;SDS011;49036;42.782;23.108;2023-02-22T10:41:43;3.55;;;1.80;;
62929;SDS011;49036;42.782;23.108;2023-02-22T10:44:13;3.03;;;1.52;;
62929;SDS011;49036;42.782;23.108;2023-02-22T10:46:39;5.50;;;2.72;;
62929;SDS011;49036;42.782;23.108;2023-02-22T10:49:06;2.35;;;1.70;;
62929;SDS011;49036;42.782;23.108;2023-02-22T10:51:34;2.05;;;1.52;;
62929;SDS011;49036;42.782;23.108;2023-02-22T10:56:45;3.75;;;1.75;;
62929;SDS011;49036;42.782;23.108;2023-02-22T10:59:12;2.40;;;1.40;;
62929;SDS011;49036;42.782;23.108;2023-02-22T11:02:34;1.77;;;1.42;;
62929;SDS011;49036;42.782;23.108;2023-02-22T11:04:57;3.15;;;1.60;;
62929;SDS011;49036;42.782;23.108;2023-02-22T11:07:34;3.10;;;1.50;;
62929;SDS011;49036;42.782;23.108;2023-02-22T11:10:05;2.80;;;1.33;;
62929;SDS011;49036;42.782;23.108;2023-02-22T11:12:39;3.13;;;1.33;;
62929;SDS011;49036;42.782;23.108;2023-02-22T11:17:40;2.85;;;1.90;;
62929;SDS011;49036;42.782;23.108;2023-02-22T11:20:17;1.88;;;1.42;;
62929;SDS011;49036;42.782;23.108;2023-02-22T11:22:50;2.35;;;1.55;;
62929;SDS011;49036;42.782;23.108;2023-02-22T11:25:19;2.70;;;1.50;;
62929;SDS011;49036;42.782;23.108;2023-02-22T11:27:48;2.50;;;1.55;;
62929;SDS011;49036;42.782;23.108;2023-02-22T11:30:29;2.67;;;1.50;;
62929;SDS011;49036;42.782;23.108;2023-02-22T11:33:02;1.73;;;1.40;;
62929;SDS011;49036;42.782;23.108;2023-02-22T11:36:00;3.85;;;2.03;;
62929;SDS011;49036;42.782;23.108;2023-02-22T11:38:32;3.20;;;1.70;;
62929;SDS011;49036;42.782;23.108;2023-02-22T11:41:05;2.38;;;1.52;;
62929;SDS011;49036;42.782;23.108;2023-02-22T11:43:41;2.60;;;2.15;;
62929;SDS011;49036;42.782;23.108;2023-02-22T11:46:23;3.08;;;1.70;;
62929;SDS011;49036;42.782;23.108;2023-02-22T11:54:06;2.13;;;1.92;;
62929;SDS011;49036;42.782;23.108;2023-02-22T11:56:48;3.70;;;1.60;;
62929;SDS011;49036;42.782;23.108;2023-02-22T12:01:54;3.90;;;2.10;;
62929;SDS011;49036;42.782;23.108;2023-02-22T12:14:46;3.42;;;2.25;;
62929;SDS011;49036;42.782;23.108;2023-02-22T12:17:29;5.03;;;2.35;;
62929;SDS011;49036;42.782;23.108;2023-02-22T12:20:14;4.70;;;2.08;;
62929;SDS011;49036;42.782;23.108;2023-02-22T12:22:54;2.95;;;1.83;;
62929;SDS011;49036;42.782;23.108;2023-02-22T12:25:28;4.97;;;1.90;;
62929;SDS011;49036;42.782;23.108;2023-02-22T12:27:59;2.92;;;2.20;;
62929;SDS011;49036;42.782;23.108;2023-02-22T12:30:36;4.20;;;2.30;;
62929;SDS011;49036;42.782;23.108;2023-02-22T12:33:08;4.55;;;2.35;;
62929;SDS011;49036;42.782;23.108;2023-02-22T12:35:39;2.95;;;1.75;;
62929;SDS011;49036;42.782;23.108;2023-02-22T12:42:25;3.58;;;1.70;;
62929;SDS011;49036;42.782;23.108;2023-02-22T12:44:54;2.15;;;1.60;;
62929;SDS011;49036;42.782;23.108;2023-02-22T12:47:27;5.97;;;1.83;;
62929;SDS011;49036;42.782;23.108;2023-02-22T12:51:33;4.28;;;1.73;;
62929;SDS011;49036;42.782;23.108;2023-02-22T13:00:05;1.50;;;1.40;;
62929;SDS011;49036;42.782;23.108;2023-02-22T13:02:59;2.50;;;1.50;;
62929;SDS011;49036;42.782;23.108;2023-02-22T13:10:22;2.88;;;1.98;;
62929;SDS011;49036;42.782;23.108;2023-02-22T13:13:03;3.10;;;2.13;;
62929;SDS011;49036;42.782;23.108;2023-02-22T13:18:15;3.95;;;2.85;;
62929;SDS011;49036;42.782;23.108;2023-02-22T13:35:25;8.10;;;3.15;;
62929;SDS011;49036;42.782;23.108;2023-02-22T13:44:22;7.15;;;3.15;;
62929;SDS011;49036;42.782;23.108;2023-02-22T13:52:07;4.75;;;3.03;;
62929;SDS011;49036;42.782;23.108;2023-02-22T13:57:16;3.78;;;2.63;;
62929;SDS011;49036;42.782;23.108;2023-02-22T14:13:25;5.88;;;2.80;;
62929;SDS011;49036;42.782;23.108;2023-02-22T14:18:25;4.65;;;3.20;;
62929;SDS011;49036;42.782;23.108;2023-02-22T14:23:45;4.82;;;2.70;;
62929;SDS011;49036;42.782;23.108;2023-02-22T14:31:31;6.45;;;3.63;;
62929;SDS011;49036;42.782;23.108;2023-02-22T14:39:52;4.43;;;3.17;;
62929;SDS011;49036;42.782;23.108;2023-02-22T14:45:02;9.68;;;3.60;;
62929;SDS011;49036;42.782;23.108;2023-02-22T14:50:49;4.63;;;2.72;;
62929;SDS011;49036;42.782;23.108;2023-02-22T14:53:26;5.57;;;2.92;;
62929;SDS011;49036;42.782;23.108;2023-02-22T14:56:21;7.40;;;3.38;;
62929;SDS011;49036;42.782;23.108;2023-02-22T15:01:45;6.60;;;3.47;;
62929;SDS011;49036;42.782;23.108;2023-02-22T15:04:16;7.47;;;3.15;;
62929;SDS011;49036;42.782;23.108;2023-02-22T15:06:41;6.28;;;3.25;;
62929;SDS011;49036;42.782;23.108;2023-02-22T15:09:10;7.07;;;3.25;;
62929;SDS011;49036;42.782;23.108;2023-02-22T15:11:39;6.22;;;3.03;;
62929;SDS011;49036;42.782;23.108;2023-02-22T15:14:14;7.03;;;3.30;;
62929;SDS011;49036;42.782;23.108;2023-02-22T15:16:46;7.45;;;3.88;;
62929;SDS011;49036;42.782;23.108;2023-02-22T15:19:16;7.47;;;3.92;;
62929;SDS011;49036;42.782;23.108;2023-02-22T15:22:03;5.35;;;2.95;;
62929;SDS011;49036;42.782;23.108;2023-02-22T15:24:33;8.27;;;4.43;;
62929;SDS011;49036;42.782;23.108;2023-02-22T15:27:11;8.77;;;3.67;;
62929;SDS011;49036;42.782;23.108;2023-02-22T15:29:41;7.47;;;4.15;;
62929;SDS011;49036;42.782;23.108;2023-02-22T15:32:17;6.85;;;3.42;;
62929;SDS011;49036;42.782;23.108;2023-02-22T15:34:43;7.80;;;3.70;;
62929;SDS011;49036;42.782;23.108;2023-02-22T15:37:19;3.97;;;3.13;;
62929;SDS011;49036;42.782;23.108;2023-02-22T15:39:49;6.13;;;3.55;;
62929;SDS011;49036;42.782;23.108;2023-02-22T15:42:23;8.73;;;3.50;;
62929;SDS011;49036;42.782;23.108;2023-02-22T15:44:52;5.65;;;4.10;;
62929;SDS011;49036;42.782;23.108;2023-02-22T15:52:39;6.70;;;4.03;;
62929;SDS011;49036;42.782;23.108;2023-02-22T15:58:06;10.32;;;4.20;;
62929;SDS011;49036;42.782;23.108;2023-02-22T16:00:36;8.85;;;3.58;;
62929;SDS011;49036;42.782;23.108;2023-02-22T16:05:39;12.35;;;5.03;;
62929;SDS011;49036;42.782;23.108;2023-02-22T16:08:15;17.63;;;4.85;;
62929;SDS011;49036;42.782;23.108;2023-02-22T16:10:46;14.00;;;4.45;;
62929;SDS011;49036;42.782;23.108;2023-02-22T16:13:21;7.00;;;4.45;;
62929;SDS011;49036;42.782;23.108;2023-02-22T16:15:57;14.02;;;4.57;;
62929;SDS011;49036;42.782;23.108;2023-02-22T16:18:29;8.60;;;4.40;;
62929;SDS011;49036;42.782;23.108;2023-02-22T16:23:29;10.73;;;4.35;;
62929;SDS011;49036;42.782;23.108;2023-02-22T16:26:04;6.43;;;3.70;;
62929;SDS011;49036;42.782;23.108;2023-02-22T16:28:46;7.45;;;4.88;;
62929;SDS011;49036;42.782;23.108;2023-02-22T16:31:16;9.00;;;5.10;;
62929;SDS011;49036;42.782;23.108;2023-02-22T16:33:45;7.65;;;4.38;;
62929;SDS011;49036;42.782;23.108;2023-02-22T16:36:11;7.68;;;3.95;;
62929;SDS011;49036;42.782;23.108;2023-02-22T16:41:03;9.07;;;4.68;;
62929;SDS011;49036;42.782;23.108;2023-02-22T16:43:30;11.35;;;5.47;;
62929;SDS011;49036;42.782;23.108;2023-02-22T16:45:57;9.25;;;5.50;;
62929;SDS011;49036;42.782;23.108;2023-02-22T16:48:26;10.80;;;5.50;;
62929;SDS011;49036;42.782;23.108;2023-02-22T16:50:54;9.50;;;4.70;;
62929;SDS011;49036;42.782;23.108;2023-02-22T16:53:24;8.65;;;4.53;;
62929;SDS011;49036;42.782;23.108;2023-02-22T16:55:51;9.45;;;4.13;;
62929;SDS011;49036;42.782;23.108;2023-02-22T16:58:24;9.25;;;4.32;;
62929;SDS011;49036;42.782;23.108;2023-02-22T17:00:54;8.23;;;4.55;;
62929;SDS011;49036;42.782;23.108;2023-02-22T17:03:21;7.40;;;4.50;;
62929;SDS011;49036;42.782;23.108;2023-02-22T17:05:47;9.18;;;4.70;;
62929;SDS011;49036;42.782;23.108;2023-02-22T17:10:40;10.38;;;4.72;;
62929;SDS011;49036;42.782;23.108;2023-02-22T17:13:06;10.73;;;4.75;;
62929;SDS011;49036;42.782;23.108;2023-02-22T17:15:32;8.80;;;4.55;;
62929;SDS011;49036;42.782;23.108;2023-02-22T17:17:59;9.65;;;4.10;;
62929;SDS011;49036;42.782;23.108;2023-02-22T17:20:28;8.23;;;4.60;;
62929;SDS011;49036;42.782;23.108;2023-02-22T17:22:59;9.45;;;4.53;;
62929;SDS011;49036;42.782;23.108;2023-02-22T17:25:27;8.40;;;4.15;;
62929;SDS011;49036;42.782;23.108;2023-02-22T17:27:56;7.15;;;4.57;;
62929;SDS011;49036;42.782;23.108;2023-02-22T17:30:22;6.63;;;4.75;;
62929;SDS011;49036;42.782;23.108;2023-02-22T17:35:20;7.60;;;4.78;;
62929;SDS011;49036;42.782;23.108;2023-02-22T17:37:50;9.90;;;4.60;;
62929;SDS011;49036;42.782;23.108;2023-02-22T17:40:16;7.40;;;4.25;;
62929;SDS011;49036;42.782;23.108;2023-02-22T17:42:42;8.13;;;4.55;;
62929;SDS011;49036;42.782;23.108;2023-02-22T17:45:09;6.57;;;4.32;;
62929;SDS011;49036;42.782;23.108;2023-02-22T17:47:41;10.07;;;4.63;;
62929;SDS011;49036;42.782;23.108;2023-02-22T17:50:11;7.63;;;4.13;;
62929;SDS011;49036;42.782;23.108;2023-02-22T17:52:39;6.10;;;4.10;;
62929;SDS011;49036;42.782;23.108;2023-02-22T17:55:05;6.95;;;4.10;;
62929;SDS011;49036;42.782;23.108;2023-02-22T17:57:31;8.15;;;4.63;;
62929;SDS011;49036;42.782;23.108;2023-02-22T17:59:57;7.70;;;4.55;;
62929;SDS011;49036;42.782;23.108;2023-02-22T18:04:48;7.32;;;4.38;;
62929;SDS011;49036;42.782;23.108;2023-02-22T18:07:14;6.18;;;4.55;;
62929;SDS011;49036;42.782;23.108;2023-02-22T18:09:43;6.10;;;4.22;;
62929;SDS011;49036;42.782;23.108;2023-02-22T18:12:08;6.85;;;3.83;;
62929;SDS011;49036;42.782;23.108;2023-02-22T18:16:59;4.88;;;3.53;;
62929;SDS011;49036;42.782;23.108;2023-02-22T18:19:26;5.93;;;3.80;;
62929;SDS011;49036;42.782;23.108;2023-02-22T18:21:53;9.57;;;4.85;;
62929;SDS011;49036;42.782;23.108;2023-02-22T18:24:24;9.10;;;4.35;;
62929;SDS011;49036;42.782;23.108;2023-02-22T18:26:50;6.85;;;4.97;;